WetterOnline ( http://www.wetteronline.de )

Wetter aktuell Schärding

Aktuelles Wetter: Fürstenzell (480m)

6-stündlich | Neueste Meldungen
Ortszeit Temperatur Wetter
Fr, 20.04. 14:00 24.6° C leicht bewölkt
Fr, 20.04. 8:00 14.8° C leicht bewölkt
Fr, 20.04. 2:00 13.2° C wolkig
Do, 19.04. 20:00 20.3° C fast wolkenlos
Do, 19.04. 14:00 22.9° C leicht bewölkt
Do, 19.04. 8:00 10.9° C fast wolkenlos
Do, 19.04. 2:00 10.9° C wolkenlos
Mi, 18.04. 20:00 18.8° C wolkenlos
Ortszeit Temperatur Wetter
Fr, 20.04. 18:10 24.6° C fast wolkenlos
Fr, 20.04. 18:00 24.8° C fast wolkenlos
Fr, 20.04. 17:50 24.8° C fast wolkenlos
Fr, 20.04. 17:40 24.9° C leicht bewölkt
Fr, 20.04. 17:30 24.9° C fast wolkenlos
Fr, 20.04. 17:20 24.9° C fast wolkenlos
Fr, 20.04. 17:00 25.1° C leicht bewölkt
Fr, 20.04. 16:30 25.4° C wolkig
Fr, 20.04. 16:00 25.6° C leicht bewölkt
Fr, 20.04. 15:30 25.4° C leicht bewölkt
Fr, 20.04. 15:00 25.0° C fast wolkenlos
Ortszeit Relative Feuchte Sichtweite
Fr, 20.04. 14:00 36% 14 km
Fr, 20.04. 8:00 68% 23 km
Fr, 20.04. 2:00 68% 30 km
Do, 19.04. 20:00 44% 50 km
Do, 19.04. 14:00 34% 30 km
Do, 19.04. 8:00 63% 26 km
Do, 19.04. 2:00 68% 27 km
Mi, 18.04. 20:00 49% 16 km
Ortszeit Relative Feuchte Sichtweite
Fr, 20.04. 18:10 30% -
Fr, 20.04. 18:00 30% 35 km
Fr, 20.04. 17:50 30% -
Fr, 20.04. 17:40 27% -
Fr, 20.04. 17:30 27% 21 km
Fr, 20.04. 17:20 27% -
Fr, 20.04. 17:00 25% 25 km
Fr, 20.04. 16:30 26% 22 km
Fr, 20.04. 16:00 27% 25 km
Fr, 20.04. 15:30 27% 23 km
Fr, 20.04. 15:00 26% 17 km
Ortszeit Niederschlagsmenge Niederschlagsart
Fr, 20.04. 14:00 0.0 l/m2 in 6 Std. -
Fr, 20.04. 8:00 0.0 l/m2 in 12 Std. -
Fr, 20.04. 2:00 0.0 l/m2 in 6 Std. -
Do, 19.04. 20:00 0.0 l/m2 in 12 Std. -
Do, 19.04. 14:00 0.0 l/m2 in 6 Std. -
Do, 19.04. 8:00 0.0 l/m2 in 12 Std. -
Do, 19.04. 2:00 0.0 l/m2 in 6 Std. -
Mi, 18.04. 20:00 0.0 l/m2 in 12 Std. -
Ortszeit Niederschlagsmenge Niederschlagsart
Fr, 20.04. 18:10 keine Meldung -
Fr, 20.04. 18:00 0.0 l/m2 in 1 Std. -
Fr, 20.04. 17:50 keine Meldung -
Fr, 20.04. 17:40 keine Meldung -
Fr, 20.04. 17:30 0.0 l/m2 in 1 Std. -
Fr, 20.04. 17:20 keine Meldung -
Fr, 20.04. 17:00 0.0 l/m2 in 1 Std. -
Fr, 20.04. 16:30 0.0 l/m2 in 1 Std. -
Fr, 20.04. 16:00 0.0 l/m2 in 1 Std. -
Fr, 20.04. 15:30 0.0 l/m2 in 1 Std. -
Fr, 20.04. 15:00 0.0 l/m2 in 1 Std. -
Ortszeit Stärke Spitze Richtung
km/h Bft. km/h Grad Sektor
Fr, 20.04. 14:00 18 3 32 130° SO
Fr, 20.04. 8:00 13 3 19 50° NO
Fr, 20.04. 2:00 11 2 29 50° NO
Do, 19.04. 20:00 20 4 41 70° O
Do, 19.04. 14:00 14 3 25 120° SO
Do, 19.04. 8:00 9 2 15 60° NO
Do, 19.04. 2:00 11 2 18 40° NO
Mi, 18.04. 20:00 4 1 18 200° S
Ortszeit Stärke Spitze Richtung
km/h Bft. km/h Grad Sektor
Fr, 20.04. 18:10 11 2 - 130° SO
Fr, 20.04. 18:00 14 3 25 130° SO
Fr, 20.04. 17:50 14 3 - 130° SO
Fr, 20.04. 17:40 14 3 - 130° SO
Fr, 20.04. 17:30 18 3 25 130° SO
Fr, 20.04. 17:20 18 3 - 130° SO
Fr, 20.04. 17:00 18 3 29 120° SO
Fr, 20.04. 16:30 22 4 29 130° SO
Fr, 20.04. 16:00 17 3 30 130° SO
Fr, 20.04. 15:30 18 3 29 130° SO
Fr, 20.04. 15:00 24 4 35 130° SO
Ortszeit Untergrenze Bedeckung Gattung
total tief tief mittel hoch
Fr, 20.04. 14:00 9000 m 8/8 0/8 - - -
Fr, 20.04. 8:00 10500 m 3/8 0/8 - - -
Fr, 20.04. 2:00 9000 m 8/8 0/8 - - -
Do, 19.04. 20:00 10500 m 2/8 0/8 - - -
Do, 19.04. 14:00 3300 m 3/8 - - - -
Do, 19.04. 8:00 3600 m 1/8 1/8 - - -
Do, 19.04. 2:00 - 0/8 0/8 - - -
Mi, 18.04. 20:00 2700 m 0/8 0/8 - - -
Ortszeit Bedeckungsgrad in Achtel und Wolkenuntergrenze
Fr, 20.04. 18:10 1(10500m)
Fr, 20.04. 18:00 2(12000m)
Fr, 20.04. 17:50 2(12000m)
Fr, 20.04. 17:40 3(12000m)
Fr, 20.04. 17:30 2(12000m)
Fr, 20.04. 17:20 2(12000m)
Fr, 20.04. 17:00 6(9000m) 7(10500m)
Fr, 20.04. 16:30 7(9000m) 7(10500m)
Fr, 20.04. 16:00 8(9000m) 8(10500m)
Fr, 20.04. 15:30 6(9000m)
Fr, 20.04. 15:00 2(10500m)
Ortszeit Luftdruck NN (hPa) Tendenz (hPa in 3 Std.)
Fr, 20.04. 14:00 1023 - 1,1
Fr, 20.04. 8:00 1026 + 0,2
Fr, 20.04. 2:00 1027 - 0,6
Do, 19.04. 20:00 1026 - 0,3
Do, 19.04. 14:00 1028 - 1,2
Do, 19.04. 8:00 1031 + 0,1
Do, 19.04. 2:00 1032 0,0
Mi, 18.04. 20:00 1030 0,0
Ortszeit Luftdruck NN (hPa) Tendenz (hPa in 3 Std.)
Fr, 20.04. 18:10 1021 keine Meldung
Fr, 20.04. 18:00 1021 - 1,8
Fr, 20.04. 17:50 1021 keine Meldung
Fr, 20.04. 17:40 1021 keine Meldung
Fr, 20.04. 17:30 1021 - 1,7
Fr, 20.04. 17:20 1021 keine Meldung
Fr, 20.04. 17:00 1021 - 1,7
Fr, 20.04. 16:30 1022 - 1,7
Fr, 20.04. 16:00 1022 - 1,7
Fr, 20.04. 15:30 1022 - 1,5
Fr, 20.04. 15:00 1023 - 1,3
Ortszeit Schneehöhe (cm)
Fr, 20.04. 14:00 -
Fr, 20.04. 8:00 0
Fr, 20.04. 2:00 0
Do, 19.04. 20:00 -
Do, 19.04. 14:00 -
Do, 19.04. 8:00 0
Do, 19.04. 2:00 0
Mi, 18.04. 20:00 0
Ortszeit Schneehöhe (cm)
Fr, 20.04. 18:10 -
Fr, 20.04. 18:00 -
Fr, 20.04. 17:50 -
Fr, 20.04. 17:40 -
Fr, 20.04. 17:30 -
Fr, 20.04. 17:20 -
Fr, 20.04. 17:00 -
Fr, 20.04. 16:30 -
Fr, 20.04. 16:00 -
Fr, 20.04. 15:30 -
Fr, 20.04. 15:00 -
Link zu dieser Seite / Seite empfehlen

Das Wetter in ...